Clintonville, WI

5:57 PM CST on November 21, 2019 (GMT -0600)
Clintonville Municipal

Weather History for KCLI - October, 2019

Change the Weather History Date:

Sunday, October 20, 2019

  Actual Average Record
Temperature  
Mean Temperature 54 °F -  
Max Temperature 64 °F 55 °F 84 °F (1953)
Min Temperature 44 °F 33 °F 17 °F (1992)
Degree Days  
Heating Degree Days 11    
Growing Degree Days 4 (Base 50)    
Moisture  
Dew Point 42 °F    
Average Humidity 73    
Maximum Humidity 92    
Minimum Humidity 28    
Precipitation  
Precipitation 0.00 in - - ()
Sea Level Pressure  
Sea Level Pressure 29.88 in    
Wind  
Wind Speed 4 mph (WNW)    
Max Wind Speed 8 mph    
Max Gust Speed -    
Visibility 8 miles    
Events      
Averages and records for this station are not official NWS values.
T = Trace of Precipitation, MM = Missing Value Source: NWS Daily Summary

Daily Weather History Graph

Daily Weather History Graph

Search for Another Location

Airport or City:

Astronomy

Oct. 20, 2019 Rise Set
Actual Time 7:16 AM CDT 6:02 PM CDT
Civil Twilight 6:46 AM CDT 6:31 PM CDT
Nautical Twilight 6:12 AM CDT 7:05 PM CDT
Astronomical Twilight 5:39 AM CDT 7:39 PM CDT
Moon 11:01 PM CDT (10/20) 1:54 PM CDT (10/20)
Length of Visible Light 11h 45m
Length of Day
10h 46m
Waning Gibbous, 59% of the Moon is Illuminated
Oct 20
Waning Gibbous
Oct 21
Last Quarter
Oct 27
New
Nov 4
First Quarter
Nov 12
Full

Hourly Weather History & Observations

Time (CDT) Temp. Dew Point Humidity Pressure Visibility Wind Dir Wind Speed Gust Speed Precip Events Conditions
12:15 AM 49.1 °F 46.4 °F 90% 29.76 in 10.0 mi WNW 5.8 mph - N/A   Overcast
12:35 AM 49.1 °F 45.9 °F 89% 29.76 in 10.0 mi WNW 4.6 mph - N/A   Overcast
12:55 AM 48.6 °F 45.9 °F 90% 29.76 in 10.0 mi WNW 6.9 mph - N/A   Overcast
1:15 AM 48.6 °F 45.1 °F 88% 29.76 in 10.0 mi NW 6.9 mph - N/A   Overcast
1:35 AM 48.2 °F 44.8 °F 88% 29.76 in 10.0 mi NNW 5.8 mph - N/A   Overcast
1:55 AM 47.8 °F 44.8 °F 89% 29.77 in 10.0 mi WNW 6.9 mph - N/A   Overcast
2:15 AM 47.7 °F 45.0 °F 90% 29.78 in 10.0 mi WNW 3.5 mph - N/A   Overcast
2:35 AM 47.5 °F 44.8 °F 90% 29.78 in 10.0 mi NW 8.1 mph - N/A   Overcast
2:55 AM 47.5 °F 44.8 °F 90% 29.79 in 10.0 mi WNW 5.8 mph - N/A   Overcast
3:35 AM 47.7 °F 45.0 °F 90% 29.80 in 10.0 mi West 4.6 mph - N/A   Overcast
3:55 AM 47.5 °F 44.8 °F 90% 29.80 in 10.0 mi West 3.5 mph - N/A   Overcast
4:15 AM 47.5 °F 45.0 °F 91% 29.81 in 10.0 mi West 5.8 mph - N/A   Overcast
4:35 AM 47.5 °F 45.1 °F 92% 29.81 in 10.0 mi WNW 5.8 mph - N/A   Overcast
4:55 AM 47.3 °F 45.1 °F 92% 29.81 in 10.0 mi West 5.8 mph - N/A   Overcast
5:15 AM 47.3 °F 45.0 °F 92% 29.82 in 10.0 mi WNW 6.9 mph - N/A   Overcast
5:35 AM 47.5 °F 45.0 °F 91% 29.82 in 10.0 mi WNW 3.5 mph - N/A   Overcast
5:55 AM 47.3 °F 44.8 °F 91% 29.82 in 10.0 mi West 5.8 mph - N/A   Overcast
6:15 AM 47.5 °F 44.6 °F 90% 29.83 in 10.0 mi NW 3.5 mph - N/A   Overcast
6:35 AM 47.5 °F 44.2 °F 89% 29.84 in 10.0 mi WNW 4.6 mph - N/A   Overcast
6:55 AM 47.5 °F 44.2 °F 89% 29.84 in 10.0 mi West 4.6 mph - N/A   Overcast
7:15 AM 47.3 °F 44.2 °F 89% 29.85 in 10.0 mi WNW 3.5 mph - N/A   Overcast
7:35 AM 47.3 °F 43.9 °F 88% 29.86 in 10.0 mi Calm Calm - N/A   Overcast
7:55 AM 47.3 °F 44.2 °F 89% 29.87 in 10.0 mi WNW 3.5 mph - N/A   Overcast
8:15 AM 47.1 °F 43.7 °F 88% 29.88 in 10.0 mi West 5.8 mph - N/A   Overcast
8:35 AM 47.3 °F 43.7 °F 87% 29.88 in 10.0 mi WNW 3.5 mph - N/A   Overcast
8:55 AM 47.1 °F 43.3 °F 87% 29.89 in 10.0 mi West 4.6 mph - N/A   Overcast
9:15 AM 47.5 °F 43.7 °F 87% 29.90 in 10.0 mi Calm Calm - N/A   Overcast
9:35 AM 47.8 °F 43.9 °F 86% 29.91 in 10.0 mi NW 4.6 mph - N/A   Overcast
9:55 AM 48.2 °F 43.9 °F 85% 29.91 in 10.0 mi West 4.6 mph - N/A   Overcast
10:15 AM 49.5 °F 44.6 °F 83% 29.91 in 10.0 mi Calm Calm - N/A   Overcast
10:35 AM 51.1 °F 44.4 °F 78% 29.91 in 10.0 mi Calm Calm - N/A   Mostly Cloudy
10:55 AM 51.8 °F 44.8 °F 77% 29.92 in 10.0 mi WSW 4.6 mph - N/A   Scattered Clouds
11:15 AM 52.7 °F 44.4 °F 73% 29.92 in 10.0 mi Calm Calm - N/A   Clear
11:35 AM 53.8 °F 45.0 °F 72% 29.92 in 10.0 mi Calm Calm - N/A   Clear
11:55 AM 55.8 °F 45.5 °F 68% 29.92 in 10.0 mi Calm Calm - N/A   Clear
12:15 PM 57.2 °F 45.0 °F 64% 29.91 in 10.0 mi Calm Calm - N/A   Clear
12:35 PM 58.8 °F 45.9 °F 62% 29.91 in 10.0 mi Calm Calm - N/A   Clear
12:55 PM 59.9 °F 45.3 °F 59% 29.91 in 10.0 mi South 3.5 mph - N/A   Clear
1:15 PM 60.6 °F 43.9 °F 54% 29.91 in 10.0 mi WSW 4.6 mph - N/A   Clear
1:35 PM 61.7 °F 44.1 °F 52% 29.91 in 10.0 mi Calm Calm - N/A   Clear
1:55 PM 62.2 °F 40.1 °F 44% 29.91 in 10.0 mi Calm Calm - N/A   Clear
2:15 PM 63.1 °F 35.6 °F 36% 29.91 in 10.0 mi West 3.5 mph - N/A   Clear
2:35 PM 63.3 °F 34.3 °F 34% 29.91 in 4.0 mi Calm Calm - N/A   Haze
2:55 PM 63.5 °F 29.8 °F 28% 29.90 in 10.0 mi Calm Calm - N/A   Clear
3:15 PM 64.2 °F 31.5 °F 29% 29.90 in 10.0 mi Calm Calm - N/A   Clear
3:35 PM 63.9 °F 32.7 °F 31% 29.91 in 10.0 mi Calm Calm - N/A   Clear
3:55 PM 63.9 °F 32.0 °F 30% 29.91 in 10.0 mi Calm Calm - N/A   Clear
4:15 PM 64.4 °F 32.0 °F 30% 29.91 in 7.0 mi Calm Calm - N/A   Clear
4:35 PM 63.5 °F 32.0 °F 31% 29.91 in 5.0 mi Calm Calm - N/A   Haze
4:55 PM 61.3 °F 33.3 °F 35% 29.92 in 3.0 mi Calm Calm - N/A   Haze
5:15 PM 61.7 °F 36.9 °F 40% 29.91 in 2.5 mi Calm Calm - N/A   Haze
5:35 PM 58.5 °F 38.1 °F 47% 29.92 in 1.8 mi Calm Calm - N/A   Haze
5:55 PM 55.4 °F 39.0 °F 54% 29.92 in 4.0 mi Calm Calm - N/A   Haze
6:15 PM 53.2 °F 39.7 °F 60% 29.91 in 3.0 mi Calm Calm - N/A   Haze
6:35 PM 52.2 °F 39.7 °F 63% 29.92 in 10.0 mi Calm Calm - N/A   Clear
6:55 PM 48.4 °F 40.8 °F 75% 29.92 in 7.0 mi Calm Calm - N/A   Clear
7:15 PM 47.8 °F 40.5 °F 76% 29.92 in 10.0 mi Calm Calm - N/A   Clear
7:35 PM 48.6 °F 40.8 °F 75% 29.93 in 10.0 mi Calm Calm - N/A   Clear
7:55 PM 45.7 °F 39.9 °F 80% 29.92 in 3.0 mi Calm Calm - N/A   Haze
8:15 PM 45.7 °F 40.6 °F 83% 29.92 in 10.0 mi Calm Calm - N/A   Clear
8:35 PM 46.9 °F 39.9 °F 77% 29.92 in 10.0 mi Calm Calm - N/A   Clear
8:55 PM 44.2 °F 40.1 °F 85% 29.93 in 1.0 mi Calm Calm - N/A   Mist
9:15 PM 45.0 °F 40.5 °F 84% 29.92 in 2.0 mi Calm Calm - N/A   Clear
9:35 PM 45.1 °F 41.5 °F 87% 29.92 in 3.0 mi Calm Calm - N/A   Clear
9:55 PM 46.9 °F 41.7 °F 82% 29.93 in 10.0 mi Calm Calm - N/A   Clear
10:15 PM 48.2 °F 42.6 °F 81% 29.94 in 1.0 mi South 3.5 mph - N/A   Haze
10:35 PM 48.6 °F 43.5 °F 83% 29.93 in 1.2 mi East 3.5 mph - N/A   Haze
10:55 PM 48.6 °F 43.5 °F 83% 29.93 in 2.0 mi Calm Calm - N/A   Haze
11:15 PM 48.6 °F 44.1 °F 84% 29.93 in 1.0 mi Calm Calm - N/A   Haze
11:55 PM 46.8 °F 43.5 °F 88% 29.92 in 1.2 mi NE 4.6 mph - N/A   Mist